createdAt,value
2018-07-26T00:00:06.419Z,5.13
2018-07-26T00:00:18.886Z,5.13
2018-07-26T00:00:31.304Z,5.13
2018-07-26T00:00:43.953Z,5.13
2018-07-26T00:00:56.345Z,5.13
2018-07-26T00:01:08.902Z,5.13
2018-07-26T00:01:21.300Z,5.13
2018-07-26T00:01:33.699Z,5.13
2018-07-26T00:01:46.092Z,5.13
2018-07-26T00:01:58.477Z,5.13
2018-07-26T00:02:10.969Z,5.13
2018-07-26T00:02:23.364Z,5.13
2018-07-26T00:02:35.813Z,5.13
2018-07-26T00:02:48.205Z,5.13
2018-07-26T00:03:00.595Z,5.13
2018-07-26T00:03:13.045Z,5.13
2018-07-26T00:03:25.438Z,5.13
2018-07-26T00:03:37.841Z,5.13
2018-07-26T00:03:50.245Z,5.13
2018-07-26T00:04:02.633Z,5.13
2018-07-26T00:04:15.011Z,5.13
2018-07-26T00:04:27.384Z,5.13
2018-07-26T00:04:39.770Z,5.13
2018-07-26T00:04:52.160Z,5.13
2018-07-26T00:05:04.563Z,5.13
2018-07-26T00:05:16.966Z,5.13
2018-07-26T00:05:29.355Z,5.13
2018-07-26T00:05:41.764Z,5.13
2018-07-26T00:05:54.145Z,5.13
2018-07-26T00:06:06.537Z,5.13
2018-07-26T00:06:18.925Z,5.13
2018-07-26T00:06:31.325Z,5.13
2018-07-26T00:06:43.715Z,5.13
2018-07-26T00:06:56.100Z,5.13
2018-07-26T00:07:08.609Z,5.13
2018-07-26T00:07:21.005Z,5.13
2018-07-26T00:07:33.431Z,5.13
2018-07-26T00:07:45.823Z,5.13
2018-07-26T00:07:58.356Z,5.13
2018-07-26T00:08:10.984Z,5.13
2018-07-26T00:08:23.373Z,5.08
2018-07-26T00:08:35.772Z,5.08
2018-07-26T00:08:48.163Z,5.08
2018-07-26T00:09:00.557Z,5.08
2018-07-26T00:09:12.964Z,5.08
2018-07-26T00:09:25.358Z,5.08
2018-07-26T00:09:37.766Z,5.08
2018-07-26T00:09:50.152Z,5.08
2018-07-26T00:10:02.544Z,5.08
2018-07-26T00:10:14.973Z,5.08
2018-07-26T00:10:27.377Z,5.08
2018-07-26T00:10:39.778Z,5.08
2018-07-26T00:10:52.190Z,5.08
2018-07-26T00:11:04.576Z,5.08
2018-07-26T00:11:16.953Z,5.08
2018-07-26T00:11:29.451Z,5.08
2018-07-26T00:11:41.838Z,5.08
2018-07-26T00:11:54.280Z,5.08
2018-07-26T00:12:06.670Z,5.08
2018-07-26T00:12:19.095Z,5.08
2018-07-26T00:12:31.485Z,5.08
2018-07-26T00:12:43.869Z,5.08
2018-07-26T00:12:56.275Z,5.08
2018-07-26T00:13:09.363Z,5.08
2018-07-26T00:13:21.772Z,5.08
2018-07-26T00:13:34.206Z,5.08
2018-07-26T00:13:46.601Z,5.08
2018-07-26T00:13:59.000Z,5.08
2018-07-26T00:14:11.386Z,5.08
2018-07-26T00:14:23.781Z,5.08
2018-07-26T00:14:36.185Z,5.08
2018-07-26T00:14:48.581Z,5.08
2018-07-26T00:15:00.984Z,5.08
2018-07-26T00:15:13.381Z,5.08
2018-07-26T00:15:25.756Z,5.08
2018-07-26T00:15:38.145Z,5.08
2018-07-26T00:15:50.583Z,5.08
2018-07-26T00:16:02.962Z,5.08
2018-07-26T00:16:15.354Z,5.08
2018-07-26T00:16:27.776Z,5.08
2018-07-26T00:16:40.407Z,5.08
2018-07-26T00:16:52.783Z,5.08
2018-07-26T00:17:05.170Z,5.08
2018-07-26T00:17:17.577Z,5.08
2018-07-26T00:17:30.009Z,5.08
2018-07-26T00:17:42.399Z,5.08
2018-07-26T00:17:54.784Z,5.08
2018-07-26T00:18:07.170Z,5.08
2018-07-26T00:18:19.557Z,4.91
2018-07-26T00:18:31.946Z,4.91
2018-07-26T00:18:44.350Z,4.91
2018-07-26T00:18:56.739Z,4.91
2018-07-26T00:19:09.137Z,4.91
2018-07-26T00:19:21.534Z,4.91
2018-07-26T00:19:33.970Z,4.91
2018-07-26T00:19:46.667Z,4.91
2018-07-26T00:19:59.068Z,4.91
2018-07-26T00:20:11.483Z,4.91
2018-07-26T00:20:23.887Z,4.91
2018-07-26T00:20:36.268Z,4.91
2018-07-26T00:20:48.655Z,4.91
2018-07-26T00:21:01.047Z,4.91
2018-07-26T00:21:13.456Z,4.91
2018-07-26T00:21:25.903Z,4.91
2018-07-26T00:21:38.853Z,4.91
2018-07-26T00:21:52.009Z,4.91
2018-07-26T00:22:04.404Z,4.91
2018-07-26T00:22:16.807Z,4.91
2018-07-26T00:22:29.228Z,4.91
2018-07-26T00:22:41.625Z,4.91
2018-07-26T00:22:54.013Z,4.91
2018-07-26T00:23:06.413Z,4.91
2018-07-26T00:23:18.947Z,4.91
2018-07-26T00:23:31.344Z,4.91
2018-07-26T00:23:43.737Z,4.91
2018-07-26T00:23:56.153Z,4.91
2018-07-26T00:24:08.564Z,4.91
2018-07-26T00:24:20.948Z,4.91
2018-07-26T00:24:33.375Z,4.91
2018-07-26T00:24:45.761Z,4.91
2018-07-26T00:24:58.209Z,4.91
2018-07-26T00:25:10.629Z,4.91
2018-07-26T00:25:23.040Z,4.91
2018-07-26T00:25:35.425Z,4.91
2018-07-26T00:25:47.862Z,4.91
2018-07-26T00:26:00.251Z,4.91
2018-07-26T00:26:12.660Z,4.91
2018-07-26T00:26:25.057Z,4.91
2018-07-26T00:26:37.496Z,4.91
2018-07-26T00:26:49.890Z,4.91
2018-07-26T00:27:02.278Z,4.91
2018-07-26T00:27:14.682Z,4.91
2018-07-26T00:27:27.089Z,4.91
2018-07-26T00:27:39.939Z,4.91
2018-07-26T00:27:52.805Z,4.91
2018-07-26T00:28:05.192Z,4.91
2018-07-26T00:28:17.613Z,4.91
2018-07-26T00:28:30.268Z,5.33
2018-07-26T00:28:42.665Z,5.33
2018-07-26T00:28:55.053Z,5.33
2018-07-26T00:29:07.495Z,5.33
2018-07-26T00:29:19.899Z,5.33
2018-07-26T00:29:32.292Z,5.33
2018-07-26T00:29:44.689Z,5.33
2018-07-26T00:29:57.102Z,5.33
2018-07-26T00:30:09.494Z,5.33
2018-07-26T00:30:21.887Z,5.33
2018-07-26T00:30:34.297Z,5.33
2018-07-26T00:30:46.682Z,5.33
2018-07-26T00:30:59.078Z,5.33
2018-07-26T00:31:11.469Z,5.33
2018-07-26T00:31:23.873Z,5.33
2018-07-26T00:31:36.294Z,5.33
2018-07-26T00:31:48.710Z,5.33
2018-07-26T00:32:01.101Z,5.33
2018-07-26T00:32:13.480Z,5.33
2018-07-26T00:32:25.875Z,5.33
2018-07-26T00:32:38.276Z,5.33
2018-07-26T00:32:50.713Z,5.33
2018-07-26T00:33:03.108Z,5.33
2018-07-26T00:33:15.513Z,5.33
2018-07-26T00:33:27.940Z,5.33
2018-07-26T00:33:40.370Z,5.33
2018-07-26T00:33:52.768Z,5.33
2018-07-26T00:34:05.168Z,5.33
2018-07-26T00:34:17.557Z,5.33
2018-07-26T00:34:29.956Z,5.33
2018-07-26T00:34:42.393Z,5.33
2018-07-26T00:34:54.793Z,5.33
2018-07-26T00:35:07.229Z,5.33
2018-07-26T00:35:19.620Z,5.33
2018-07-26T00:35:32.005Z,5.33
2018-07-26T00:35:44.412Z,5.33
2018-07-26T00:35:56.800Z,5.33
2018-07-26T00:36:09.225Z,5.33
2018-07-26T00:36:21.608Z,5.33
2018-07-26T00:36:33.992Z,5.33
2018-07-26T00:36:46.384Z,5.33
2018-07-26T00:36:58.796Z,5.33
2018-07-26T00:37:11.189Z,5.33
2018-07-26T00:37:23.582Z,5.33
2018-07-26T00:37:35.988Z,5.33
2018-07-26T00:37:48.389Z,5.33
2018-07-26T00:38:00.785Z,5.33
2018-07-26T00:38:13.182Z,5.33
2018-07-26T00:38:25.570Z,4.12
2018-07-26T00:38:37.971Z,4.12
2018-07-26T00:38:50.356Z,4.12
2018-07-26T00:39:02.736Z,4.12
2018-07-26T00:39:15.113Z,4.12
2018-07-26T00:39:27.506Z,4.12
2018-07-26T00:39:39.884Z,4.12
2018-07-26T00:39:52.322Z,4.12
2018-07-26T00:40:04.741Z,4.12
2018-07-26T00:40:17.157Z,4.12
2018-07-26T00:40:29.542Z,4.12
2018-07-26T00:40:41.985Z,4.12
2018-07-26T00:40:54.373Z,4.12
2018-07-26T00:41:06.767Z,4.12
2018-07-26T00:41:19.757Z,4.12
2018-07-26T00:41:32.596Z,4.12
2018-07-26T00:41:45.025Z,4.12
2018-07-26T00:41:57.435Z,4.12
2018-07-26T00:42:09.820Z,4.12
2018-07-26T00:42:22.233Z,4.12
2018-07-26T00:42:34.617Z,4.12
2018-07-26T00:42:47.033Z,4.12
2018-07-26T00:42:59.675Z,4.12
2018-07-26T00:43:12.090Z,4.12
2018-07-26T00:43:24.635Z,4.12
2018-07-26T00:43:37.064Z,4.12
2018-07-26T00:43:49.453Z,4.12
2018-07-26T00:44:01.857Z,4.12
2018-07-26T00:44:14.275Z,4.12
2018-07-26T00:44:26.679Z,4.12
2018-07-26T00:44:39.060Z,4.12
2018-07-26T00:44:51.619Z,4.12
2018-07-26T00:45:04.007Z,4.12
2018-07-26T00:45:16.409Z,4.12
2018-07-26T00:45:28.791Z,4.12
2018-07-26T00:45:41.185Z,4.12
2018-07-26T00:45:53.572Z,4.12
2018-07-26T00:46:05.985Z,4.12
2018-07-26T00:46:18.382Z,4.12
2018-07-26T00:46:30.759Z,4.12
2018-07-26T00:46:43.151Z,4.12
2018-07-26T00:46:55.549Z,4.12
2018-07-26T00:47:08.012Z,4.12
2018-07-26T00:47:20.402Z,4.12
2018-07-26T00:47:32.783Z,4.12
2018-07-26T00:47:45.164Z,4.12
2018-07-26T00:47:57.574Z,4.12
2018-07-26T00:48:09.967Z,4.12
2018-07-26T00:48:22.357Z,3.83
2018-07-26T00:48:34.753Z,3.83
2018-07-26T00:48:47.651Z,3.83
2018-07-26T00:49:00.582Z,3.83
2018-07-26T00:49:12.983Z,3.83
2018-07-26T00:49:25.378Z,3.83
2018-07-26T00:49:37.792Z,3.83
2018-07-26T00:49:50.178Z,3.83
2018-07-26T00:50:02.596Z,3.83
2018-07-26T00:50:14.987Z,3.83
2018-07-26T00:50:27.384Z,3.83
2018-07-26T00:50:39.771Z,3.83
2018-07-26T00:50:52.158Z,3.83
2018-07-26T00:51:04.554Z,3.83
2018-07-26T00:51:17.008Z,3.83
2018-07-26T00:51:29.398Z,3.83
2018-07-26T00:51:41.852Z,3.83
2018-07-26T00:51:54.306Z,3.83
2018-07-26T00:52:06.720Z,3.83
2018-07-26T00:52:19.119Z,3.83
2018-07-26T00:52:31.514Z,3.83
2018-07-26T00:52:43.894Z,3.83
2018-07-26T00:52:56.286Z,3.83
2018-07-26T00:53:08.693Z,3.83
2018-07-26T00:53:21.079Z,3.83
2018-07-26T00:53:33.471Z,3.83
2018-07-26T00:53:45.868Z,3.83
2018-07-26T00:53:58.310Z,3.83
2018-07-26T00:54:10.704Z,3.83
2018-07-26T00:54:23.088Z,3.83
2018-07-26T00:54:35.496Z,3.83
2018-07-26T00:54:47.902Z,3.83
2018-07-26T00:55:00.299Z,3.83
2018-07-26T00:55:12.705Z,3.83
2018-07-26T00:55:25.248Z,3.83
2018-07-26T00:55:37.643Z,3.83
2018-07-26T00:55:50.032Z,3.83
2018-07-26T00:56:02.430Z,3.83
2018-07-26T00:56:14.874Z,3.83
2018-07-26T00:56:27.261Z,3.83
2018-07-26T00:56:39.676Z,3.83
2018-07-26T00:56:52.075Z,3.83
2018-07-26T00:57:04.451Z,3.83
2018-07-26T00:57:16.831Z,3.83
2018-07-26T00:57:29.231Z,3.83
2018-07-26T00:57:41.661Z,3.83
2018-07-26T00:57:54.058Z,3.83
2018-07-26T00:58:06.456Z,3.83
2018-07-26T00:58:18.853Z,3.83
2018-07-26T00:58:31.251Z,5.19
2018-07-26T00:58:43.638Z,5.19
2018-07-26T00:58:56.200Z,5.19
2018-07-26T00:59:08.597Z,5.19
2018-07-26T00:59:20.999Z,5.19
2018-07-26T00:59:33.378Z,5.19
2018-07-26T00:59:45.801Z,5.19
2018-07-26T00:59:58.193Z,5.19
2018-07-26T01:00:10.601Z,5.19
2018-07-26T01:00:23.011Z,5.19
2018-07-26T01:00:35.562Z,5.19
2018-07-26T01:00:48.030Z,5.19
2018-07-26T01:01:00.428Z,5.19
2018-07-26T01:01:13.060Z,5.19
2018-07-26T01:01:25.442Z,5.19
2018-07-26T01:01:37.842Z,5.19
2018-07-26T01:01:50.241Z,5.19
2018-07-26T01:02:02.625Z,5.19
2018-07-26T01:02:15.209Z,5.19
2018-07-26T01:02:27.615Z,5.19
2018-07-26T01:02:40.029Z,5.19
2018-07-26T01:02:52.436Z,5.19
2018-07-26T01:03:04.888Z,5.19
2018-07-26T01:03:17.274Z,5.19
2018-07-26T01:03:29.701Z,5.19
2018-07-26T01:03:42.130Z,5.19
2018-07-26T01:03:54.546Z,5.19
2018-07-26T01:04:06.926Z,5.19
2018-07-26T01:04:19.301Z,5.19
2018-07-26T01:04:31.680Z,5.19
2018-07-26T01:04:44.070Z,5.19
2018-07-26T01:04:56.460Z,5.19
2018-07-26T01:05:08.862Z,5.19
2018-07-26T01:05:21.259Z,5.19
2018-07-26T01:05:33.661Z,5.19
2018-07-26T01:05:46.061Z,5.19
2018-07-26T01:05:58.446Z,5.19
2018-07-26T01:06:10.826Z,5.19
2018-07-26T01:06:23.372Z,5.19
2018-07-26T01:06:35.758Z,5.19
2018-07-26T01:06:48.140Z,5.19
2018-07-26T01:07:00.539Z,5.19
2018-07-26T01:07:12.930Z,5.19
2018-07-26T01:07:25.323Z,5.19
2018-07-26T01:07:37.711Z,5.19
2018-07-26T01:07:50.357Z,5.19
2018-07-26T01:08:02.768Z,5.19
2018-07-26T01:08:15.165Z,5.19
2018-07-26T01:08:27.568Z,5
2018-07-26T01:08:39.973Z,5
2018-07-26T01:08:52.365Z,5
2018-07-26T01:09:04.757Z,5
2018-07-26T01:09:17.138Z,5
2018-07-26T01:09:29.689Z,5
2018-07-26T01:09:42.977Z,5
2018-07-26T01:09:55.433Z,5
2018-07-26T01:10:07.834Z,5
2018-07-26T01:10:20.264Z,5
2018-07-26T01:10:32.661Z,5
2018-07-26T01:10:45.067Z,5
2018-07-26T01:10:57.471Z,5
2018-07-26T01:11:09.869Z,5
2018-07-26T01:11:22.316Z,5
2018-07-26T01:11:34.714Z,5
2018-07-26T01:11:47.114Z,5
2018-07-26T01:11:59.595Z,5
2018-07-26T01:12:11.992Z,5
2018-07-26T01:12:24.393Z,5
2018-07-26T01:12:36.796Z,5
2018-07-26T01:12:49.310Z,5
2018-07-26T01:13:01.705Z,5
2018-07-26T01:13:14.143Z,5
2018-07-26T01:13:26.529Z,5
2018-07-26T01:13:38.921Z,5
2018-07-26T01:13:51.347Z,5
2018-07-26T01:14:03.756Z,5
2018-07-26T01:14:16.158Z,5
2018-07-26T01:14:28.564Z,5
2018-07-26T01:14:41.001Z,5
2018-07-26T01:14:53.396Z,5
2018-07-26T01:15:05.815Z,5
2018-07-26T01:15:18.255Z,5
2018-07-26T01:15:30.642Z,5
2018-07-26T01:15:43.043Z,5
2018-07-26T01:15:55.436Z,5
2018-07-26T01:16:07.835Z,5
2018-07-26T01:16:20.220Z,5
2018-07-26T01:16:32.620Z,5
2018-07-26T01:16:45.022Z,5
2018-07-26T01:16:57.416Z,5
2018-07-26T01:17:09.800Z,5
2018-07-26T01:17:22.193Z,5
2018-07-26T01:17:34.567Z,5
2018-07-26T01:17:46.957Z,5
2018-07-26T01:17:59.384Z,5
2018-07-26T01:18:11.789Z,5
2018-07-26T01:18:24.175Z,4.75
2018-07-26T01:18:36.579Z,4.75
2018-07-26T01:18:48.999Z,4.75
2018-07-26T01:19:01.393Z,4.75
2018-07-26T01:19:13.775Z,4.75
2018-07-26T01:19:26.169Z,4.75
2018-07-26T01:19:38.563Z,4.75
2018-07-26T01:19:50.942Z,4.75
2018-07-26T01:20:03.348Z,4.75
2018-07-26T01:20:15.730Z,4.75
2018-07-26T01:20:28.564Z,4.75
2018-07-26T01:20:40.954Z,4.75
2018-07-26T01:20:53.343Z,4.75
2018-07-26T01:21:05.747Z,4.75
2018-07-26T01:21:18.172Z,4.75
2018-07-26T01:21:30.691Z,4.75
2018-07-26T01:21:43.096Z,4.75
2018-07-26T01:21:55.488Z,4.75
2018-07-26T01:22:07.875Z,4.75
2018-07-26T01:22:20.259Z,4.75
2018-07-26T01:22:32.657Z,4.75
2018-07-26T01:22:45.040Z,4.75
2018-07-26T01:22:57.471Z,4.75
2018-07-26T01:23:09.955Z,4.75
2018-07-26T01:23:22.348Z,4.75
2018-07-26T01:23:34.738Z,4.75
2018-07-26T01:23:47.127Z,4.75
2018-07-26T01:23:59.531Z,4.75
2018-07-26T01:24:11.921Z,4.75
2018-07-26T01:24:24.310Z,4.75
2018-07-26T01:24:36.707Z,4.75
2018-07-26T01:24:49.097Z,4.75
2018-07-26T01:25:01.519Z,4.75
2018-07-26T01:25:13.950Z,4.75
2018-07-26T01:25:26.336Z,4.75
2018-07-26T01:25:38.737Z,4.75
2018-07-26T01:25:51.137Z,4.75
2018-07-26T01:26:03.545Z,4.75
2018-07-26T01:26:15.943Z,4.75
2018-07-26T01:26:28.359Z,4.75
2018-07-26T01:26:40.757Z,4.75
2018-07-26T01:26:53.139Z,4.75
2018-07-26T01:27:05.537Z,4.75
2018-07-26T01:27:17.923Z,4.75
2018-07-26T01:27:30.323Z,4.75
2018-07-26T01:27:42.717Z,4.75
2018-07-26T01:27:55.110Z,4.75
2018-07-26T01:28:07.514Z,4.75
2018-07-26T01:28:19.940Z,4.75
2018-07-26T01:28:32.512Z,6.9
2018-07-26T01:28:44.909Z,6.9
2018-07-26T01:28:57.292Z,6.9
2018-07-26T01:29:09.716Z,6.9
2018-07-26T01:29:22.103Z,6.9
2018-07-26T01:29:34.561Z,6.9
2018-07-26T01:29:46.961Z,6.9
2018-07-26T01:29:59.368Z,6.9
2018-07-26T01:30:11.753Z,6.9
2018-07-26T01:30:24.138Z,6.9
2018-07-26T01:30:36.519Z,6.9
2018-07-26T01:30:48.898Z,6.9
2018-07-26T01:31:01.333Z,6.9
2018-07-26T01:31:13.728Z,6.9
2018-07-26T01:31:26.117Z,6.9
2018-07-26T01:31:38.503Z,6.9
2018-07-26T01:31:50.914Z,6.9
2018-07-26T01:32:03.339Z,6.9
2018-07-26T01:32:15.776Z,6.9
2018-07-26T01:32:28.164Z,6.9
2018-07-26T01:32:40.582Z,6.9
2018-07-26T01:32:52.983Z,6.9
2018-07-26T01:33:05.378Z,6.9
2018-07-26T01:33:17.773Z,6.9
2018-07-26T01:33:30.190Z,6.9
2018-07-26T01:33:42.576Z,6.9
2018-07-26T01:33:54.954Z,6.9
2018-07-26T01:34:07.341Z,6.9
2018-07-26T01:34:19.730Z,6.9
2018-07-26T01:34:32.159Z,6.9
2018-07-26T01:34:44.535Z,6.9
2018-07-26T01:34:56.932Z,6.9
2018-07-26T01:35:09.377Z,6.9
2018-07-26T01:35:21.771Z,6.9
2018-07-26T01:35:34.153Z,6.9
2018-07-26T01:35:46.552Z,6.9
2018-07-26T01:35:58.949Z,6.9
2018-07-26T01:36:11.353Z,6.9
2018-07-26T01:36:23.797Z,6.9
2018-07-26T01:36:36.189Z,6.9
2018-07-26T01:36:48.584Z,6.9
2018-07-26T01:37:01.017Z,6.9
2018-07-26T01:37:13.400Z,6.9
2018-07-26T01:37:25.785Z,6.9
2018-07-26T01:37:38.172Z,6.9
2018-07-26T01:37:50.595Z,6.9
2018-07-26T01:38:02.992Z,6.9
2018-07-26T01:38:15.379Z,6.9
2018-07-26T01:38:27.771Z,4.8
2018-07-26T01:38:40.203Z,4.8
2018-07-26T01:38:52.590Z,4.8
2018-07-26T01:39:04.972Z,4.8
2018-07-26T01:39:17.363Z,4.8
2018-07-26T01:39:29.743Z,4.8
2018-07-26T01:39:42.133Z,4.8
2018-07-26T01:39:54.515Z,4.8
2018-07-26T01:40:06.914Z,4.8
2018-07-26T01:40:19.367Z,4.8
2018-07-26T01:40:31.748Z,4.8
2018-07-26T01:40:44.170Z,4.8
2018-07-26T01:40:56.565Z,4.8
2018-07-26T01:41:08.964Z,4.8
2018-07-26T01:41:21.354Z,4.8
2018-07-26T01:41:33.749Z,4.8
2018-07-26T01:41:46.130Z,4.8
2018-07-26T01:41:58.523Z,4.8
2018-07-26T01:42:10.936Z,4.8
2018-07-26T01:42:23.386Z,4.8
2018-07-26T01:42:35.771Z,4.8
2018-07-26T01:42:48.158Z,4.8
2018-07-26T01:43:00.694Z,4.8
2018-07-26T01:43:13.089Z,4.8
2018-07-26T01:43:25.572Z,4.8
2018-07-26T01:43:37.954Z,4.8
2018-07-26T01:43:50.351Z,4.8
2018-07-26T01:44:02.744Z,4.8
2018-07-26T01:44:15.131Z,4.8
2018-07-26T01:44:27.548Z,4.8
2018-07-26T01:44:39.934Z,4.8
2018-07-26T01:44:52.487Z,4.8
2018-07-26T01:45:04.913Z,4.8
2018-07-26T01:45:17.322Z,4.8
2018-07-26T01:45:29.703Z,4.8
2018-07-26T01:45:42.118Z,4.8
2018-07-26T01:45:54.503Z,4.8
2018-07-26T01:46:06.902Z,4.8
2018-07-26T01:46:19.289Z,4.8
2018-07-26T01:46:31.692Z,4.8
2018-07-26T01:46:44.079Z,4.8
2018-07-26T01:46:56.470Z,4.8
2018-07-26T01:47:08.874Z,4.8
2018-07-26T01:47:21.249Z,4.8
2018-07-26T01:47:33.639Z,4.8
2018-07-26T01:47:46.025Z,4.8
2018-07-26T01:47:58.429Z,4.8
2018-07-26T01:48:10.885Z,4.8
2018-07-26T01:48:23.278Z,6.02
2018-07-26T01:48:35.670Z,6.02
2018-07-26T01:48:48.056Z,6.02
2018-07-26T01:49:00.524Z,6.02
2018-07-26T01:49:12.917Z,6.02
2018-07-26T01:49:25.308Z,6.02
2018-07-26T01:49:37.746Z,6.02
2018-07-26T01:49:50.135Z,6.02
2018-07-26T01:50:02.533Z,6.02
2018-07-26T01:50:14.929Z,6.02
2018-07-26T01:50:27.359Z,6.02
2018-07-26T01:50:39.748Z,6.02
2018-07-26T01:50:52.198Z,6.02
2018-07-26T01:51:04.594Z,6.02
2018-07-26T01:51:16.977Z,6.02
2018-07-26T01:51:29.392Z,6.02
2018-07-26T01:51:41.794Z,6.02
2018-07-26T01:51:54.175Z,6.02
2018-07-26T01:52:06.564Z,6.02
2018-07-26T01:52:18.963Z,6.02
2018-07-26T01:52:31.357Z,6.02
2018-07-26T01:52:43.784Z,6.02
2018-07-26T01:52:56.173Z,6.02
2018-07-26T01:53:08.549Z,6.02
2018-07-26T01:53:20.922Z,6.02
2018-07-26T01:53:33.305Z,6.02
2018-07-26T01:53:45.691Z,6.02
2018-07-26T01:53:58.096Z,6.02
2018-07-26T01:54:10.509Z,6.02
2018-07-26T01:54:22.921Z,6.02
2018-07-26T01:54:35.312Z,6.02
2018-07-26T01:54:47.704Z,6.02
2018-07-26T01:55:00.108Z,6.02
2018-07-26T01:55:12.508Z,6.02
2018-07-26T01:55:24.910Z,6.02
2018-07-26T01:55:37.296Z,6.02
2018-07-26T01:55:49.693Z,6.02
2018-07-26T01:56:02.082Z,6.02
2018-07-26T01:56:14.485Z,6.02
2018-07-26T01:56:26.887Z,6.02
2018-07-26T01:56:39.287Z,6.02
2018-07-26T01:56:51.696Z,6.02
2018-07-26T01:57:04.117Z,6.02
2018-07-26T01:57:16.522Z,6.02
2018-07-26T01:57:28.953Z,6.02
2018-07-26T01:57:41.344Z,6.02
2018-07-26T01:57:53.728Z,6.02
2018-07-26T01:58:06.118Z,6.02
2018-07-26T01:58:18.508Z,6.02
2018-07-26T01:58:30.902Z,5.24
2018-07-26T01:58:43.292Z,5.24
2018-07-26T01:58:55.859Z,5.24
2018-07-26T01:59:08.252Z,5.24
2018-07-26T01:59:20.650Z,5.24
2018-07-26T01:59:33.077Z,5.24
2018-07-26T01:59:45.457Z,5.24
2018-07-26T01:59:57.902Z,5.24
2018-07-26T02:00:10.313Z,5.24
2018-07-26T02:00:22.757Z,5.24
2018-07-26T02:00:35.209Z,5.24
2018-07-26T02:00:47.718Z,5.24
2018-07-26T02:01:00.124Z,5.24
2018-07-26T02:01:12.666Z,5.24
2018-07-26T02:01:25.058Z,5.24
2018-07-26T02:01:37.839Z,5.24
2018-07-26T02:01:51.139Z,5.24
2018-07-26T02:02:03.828Z,5.24
2018-07-26T02:02:16.272Z,5.24
2018-07-26T02:02:28.648Z,5.24
2018-07-26T02:02:41.047Z,5.24
2018-07-26T02:02:53.480Z,5.24
2018-07-26T02:03:05.886Z,5.24
2018-07-26T02:03:18.277Z,5.24
2018-07-26T02:03:30.673Z,5.24
2018-07-26T02:03:43.069Z,5.24
2018-07-26T02:03:55.478Z,5.24
2018-07-26T02:04:07.881Z,5.24
2018-07-26T02:04:20.274Z,5.24
2018-07-26T02:04:32.696Z,5.24
2018-07-26T02:04:45.104Z,5.24
2018-07-26T02:04:57.503Z,5.24
2018-07-26T02:05:09.908Z,5.24
2018-07-26T02:05:22.298Z,5.24
2018-07-26T02:05:34.685Z,5.24
2018-07-26T02:05:47.098Z,5.24
2018-07-26T02:05:59.470Z,5.24
2018-07-26T02:06:11.861Z,5.24
2018-07-26T02:06:24.274Z,5.24
2018-07-26T02:06:36.684Z,5.24
2018-07-26T02:06:49.091Z,5.24
2018-07-26T02:07:01.538Z,5.24
2018-07-26T02:07:13.963Z,5.24
2018-07-26T02:07:26.352Z,5.24
2018-07-26T02:07:38.754Z,5.24
2018-07-26T02:07:51.270Z,5.24
2018-07-26T02:08:03.684Z,5.24
2018-07-26T02:08:16.082Z,5.24
2018-07-26T02:08:28.474Z,5.13
2018-07-26T02:08:40.878Z,5.13
2018-07-26T02:08:53.339Z,5.13
2018-07-26T02:09:05.740Z,5.13
2018-07-26T02:09:18.141Z,5.13
2018-07-26T02:09:30.543Z,5.13
2018-07-26T02:09:43.091Z,5.13
2018-07-26T02:09:55.475Z,5.13
2018-07-26T02:10:07.894Z,5.13
2018-07-26T02:10:20.289Z,5.13
2018-07-26T02:10:32.693Z,5.13
2018-07-26T02:10:45.339Z,5.13
2018-07-26T02:10:57.728Z,5.13
2018-07-26T02:11:10.132Z,5.13
2018-07-26T02:11:22.531Z,5.13
2018-07-26T02:11:34.930Z,5.13
2018-07-26T02:11:47.312Z,5.13
2018-07-26T02:11:59.695Z,5.13
2018-07-26T02:12:12.121Z,5.13
2018-07-26T02:12:24.529Z,5.13
2018-07-26T02:12:36.939Z,5.13
2018-07-26T02:12:49.345Z,5.13
2018-07-26T02:13:01.730Z,5.13
2018-07-26T02:13:14.129Z,5.13
2018-07-26T02:13:26.512Z,5.13
2018-07-26T02:13:38.905Z,5.13
2018-07-26T02:13:51.304Z,5.13
2018-07-26T02:14:03.697Z,5.13
2018-07-26T02:14:16.105Z,5.13
2018-07-26T02:14:28.503Z,5.13
2018-07-26T02:14:40.954Z,5.13
2018-07-26T02:14:53.368Z,5.13
2018-07-26T02:15:05.771Z,5.13
2018-07-26T02:15:18.155Z,5.13
2018-07-26T02:15:30.546Z,5.13
2018-07-26T02:15:42.948Z,5.13
2018-07-26T02:15:55.342Z,5.13
2018-07-26T02:16:07.737Z,5.13
2018-07-26T02:16:20.197Z,5.13
2018-07-26T02:16:32.589Z,5.13
2018-07-26T02:16:44.976Z,5.13
2018-07-26T02:16:57.395Z,5.13
2018-07-26T02:17:09.792Z,5.13
2018-07-26T02:17:22.186Z,5.13
2018-07-26T02:17:34.578Z,5.13
2018-07-26T02:17:46.971Z,5.13
2018-07-26T02:17:59.368Z,5.13
2018-07-26T02:18:11.797Z,5.13
2018-07-26T02:18:24.188Z,6.67
2018-07-26T02:18:36.583Z,6.67
2018-07-26T02:18:48.988Z,6.67
2018-07-26T02:19:01.384Z,6.67
2018-07-26T02:19:13.776Z,6.67
2018-07-26T02:19:26.248Z,6.67
2018-07-26T02:19:38.685Z,6.67
2018-07-26T02:19:51.081Z,6.67
2018-07-26T02:20:03.487Z,6.67
2018-07-26T02:20:15.877Z,6.67
2018-07-26T02:20:28.279Z,6.67
2018-07-26T02:20:40.671Z,6.67
2018-07-26T02:20:53.076Z,6.67
2018-07-26T02:21:05.746Z,6.67
2018-07-26T02:21:18.135Z,6.67
2018-07-26T02:21:30.756Z,6.67
2018-07-26T02:21:43.153Z,6.67
2018-07-26T02:21:55.575Z,6.67
2018-07-26T02:22:07.968Z,6.67
2018-07-26T02:22:20.365Z,6.67
2018-07-26T02:22:32.778Z,6.67
2018-07-26T02:22:45.159Z,6.67
2018-07-26T02:22:57.548Z,6.67
2018-07-26T02:23:10.085Z,6.67
2018-07-26T02:23:22.479Z,6.67
2018-07-26T02:23:34.858Z,6.67
2018-07-26T02:23:47.253Z,6.67
2018-07-26T02:23:59.640Z,6.67
2018-07-26T02:24:12.032Z,6.67
2018-07-26T02:24:24.415Z,6.67
2018-07-26T02:24:36.817Z,6.67
2018-07-26T02:24:49.212Z,6.67
2018-07-26T02:25:01.603Z,6.67
2018-07-26T02:25:13.984Z,6.67
2018-07-26T02:25:26.453Z,6.67
2018-07-26T02:25:38.861Z,6.67
2018-07-26T02:25:51.274Z,6.67
2018-07-26T02:26:03.671Z,6.67
2018-07-26T02:26:16.082Z,6.67
2018-07-26T02:26:28.488Z,6.67
2018-07-26T02:26:40.883Z,6.67
2018-07-26T02:26:53.285Z,6.67
2018-07-26T02:27:05.681Z,6.67
2018-07-26T02:27:18.076Z,6.67
2018-07-26T02:27:30.466Z,6.67
2018-07-26T02:27:42.855Z,6.67
2018-07-26T02:27:55.248Z,6.67
2018-07-26T02:28:07.664Z,6.67
2018-07-26T02:28:20.071Z,6.67
2018-07-26T02:28:32.604Z,6.58
2018-07-26T02:28:45.045Z,6.58
2018-07-26T02:28:57.450Z,6.58
2018-07-26T02:29:09.850Z,6.58
2018-07-26T02:29:22.281Z,6.58
2018-07-26T02:29:34.691Z,6.58
2018-07-26T02:29:47.095Z,6.58
2018-07-26T02:29:59.529Z,6.58
2018-07-26T02:30:11.969Z,6.58
2018-07-26T02:30:24.449Z,6.58
2018-07-26T02:30:36.894Z,6.58
2018-07-26T02:30:49.352Z,6.58
2018-07-26T02:31:02.399Z,6.58
2018-07-26T02:31:15.870Z,6.58
2018-07-26T02:31:28.316Z,6.58
2018-07-26T02:31:40.733Z,6.58
2018-07-26T02:31:53.162Z,6.58
2018-07-26T02:32:05.594Z,6.58
2018-07-26T02:32:18.023Z,6.58
2018-07-26T02:32:30.448Z,6.58
2018-07-26T02:32:42.845Z,6.58
2018-07-26T02:32:55.276Z,6.58
2018-07-26T02:33:07.678Z,6.58
2018-07-26T02:33:20.121Z,6.58
2018-07-26T02:33:32.529Z,6.58
2018-07-26T02:33:44.963Z,6.58
2018-07-26T02:33:57.371Z,6.58
2018-07-26T02:34:09.836Z,6.58
2018-07-26T02:34:22.290Z,6.58
2018-07-26T02:34:34.701Z,6.58
2018-07-26T02:34:47.124Z,6.58
2018-07-26T02:34:59.544Z,6.58
2018-07-26T02:35:12.020Z,6.58
2018-07-26T02:35:24.428Z,6.58
2018-07-26T02:35:36.844Z,6.58
2018-07-26T02:35:49.283Z,6.58
2018-07-26T02:36:01.689Z,6.58
2018-07-26T02:36:14.151Z,6.58
2018-07-26T02:36:26.658Z,6.58
2018-07-26T02:36:39.153Z,6.58
2018-07-26T02:36:52.338Z,6.58
2018-07-26T02:37:05.354Z,6.58
2018-07-26T02:37:17.799Z,6.58
2018-07-26T02:37:30.206Z,6.58
2018-07-26T02:37:42.623Z,6.58
2018-07-26T02:37:55.019Z,6.58
2018-07-26T02:38:07.414Z,6.58
2018-07-26T02:38:20.058Z,6.58
2018-07-26T02:38:32.488Z,7.25
2018-07-26T02:38:44.926Z,7.25
2018-07-26T02:38:57.353Z,7.25
2018-07-26T02:39:09.801Z,7.25
2018-07-26T02:39:22.250Z,7.25
2018-07-26T02:39:34.663Z,7.25
2018-07-26T02:39:47.081Z,7.25
2018-07-26T02:39:59.507Z,7.25
2018-07-26T02:40:11.918Z,7.25
2018-07-26T02:40:24.322Z,7.25
2018-07-26T02:40:36.722Z,7.25
2018-07-26T02:40:49.203Z,7.25
2018-07-26T02:41:01.620Z,7.25
2018-07-26T02:41:14.106Z,7.25
2018-07-26T02:41:26.542Z,7.25
2018-07-26T02:41:38.959Z,7.25
2018-07-26T02:41:51.359Z,7.25
2018-07-26T02:42:03.793Z,7.25
2018-07-26T02:42:16.228Z,7.25
2018-07-26T02:42:28.643Z,7.25
2018-07-26T02:42:41.041Z,7.25
2018-07-26T02:42:53.509Z,7.25
2018-07-26T02:43:05.993Z,7.25
2018-07-26T02:43:18.580Z,7.25
2018-07-26T02:43:30.984Z,7.25
2018-07-26T02:43:43.404Z,7.25
2018-07-26T02:43:55.823Z,7.25
2018-07-26T02:44:08.213Z,7.25
2018-07-26T02:44:20.695Z,7.25
2018-07-26T02:44:33.154Z,7.25
2018-07-26T02:44:45.701Z,7.25
2018-07-26T02:44:58.098Z,7.25
2018-07-26T02:45:10.484Z,7.25
2018-07-26T02:45:22.898Z,7.25
2018-07-26T02:45:35.322Z,7.25
2018-07-26T02:45:47.737Z,7.25
2018-07-26T02:46:00.173Z,7.25
2018-07-26T02:46:12.612Z,7.25
2018-07-26T02:46:25.118Z,7.25
2018-07-26T02:46:37.569Z,7.25
2018-07-26T02:46:49.965Z,7.25
2018-07-26T02:47:02.371Z,7.25